SBFLSBJV

Guest
Details From SBFL - Hercillo Luz
To SBJV - Lauro Carneiro De Loyola
Flight Number -
Tags Generated
Created
Modified
Stats Distance 89 nm / 164 km
Max Altitude 0 ft / 0 m
Waypoints 2
Social Downloads 2
Likes 0
Share VATSIM

Download

Looking for another format? Having issues loading an existing format? Contact us
Advertisement - Login to hide

Notes

Generated

Route

SBFL SBJV

ID Type Via Altitude Latitude Longitude Leg Dist Tot Dist Heading (true) Name
O SBFL APT - 0 ft / 0 m -27.67664˚ -48.55458˚ - 0 nm - -
O SBJV APT - 0 ft / 0 m -26.21982˚ -48.80376˚ 88 nm 88 nm 351° / 351° LAURO CARNEIRO DE LOYOLA

Altitude Profile

Advertisement - Login to hide

SBFL

Details ICAO SBFL (FLN)
Name Hercillo Luz
Region Brazil
Timezone America/Sao_Paulo (UTC-2.0)
Stats Elevation 19 ft / 6 m (AMSL)
Location -27.670487° -48.547180°
Runways 2
Magnetic Variation 19.319° W

METAR

SBFL 120800Z 20006KT 9999 BKN045 19/14 Q1016

Decode

TAF

TAF SBFL 120300Z 1206/1306 03008KT 9999 BKN030 TN20/1207Z TX24/1217Z PROB30 1206/1213 13008KT PROB40 1213/1221 SCT030 RMK PDN

Decode

Departure Runways

ID Width Length Bearing (true) Bearing (mag) Surface Threshold Offset Overrun Length
03 148 ft / 45 m 4,939 ft / 1,505 m 11.55° 30.87° Concrete 0 ft / 0 m 0 ft / 0 m
14 148 ft / 45 m 7,543 ft / 2,299 m 121.30° 140.62° Asphalt 720 ft / 219 m 0 ft / 0 m
21 148 ft / 45 m 4,939 ft / 1,505 m 191.55° 210.87° Concrete 0 ft / 0 m 0 ft / 0 m
32 148 ft / 45 m 7,543 ft / 2,299 m 301.29° 320.61° Asphalt 0 ft / 0 m 200 ft / 61 m

SBJV

Details ICAO SBJV (JOI)
Name LAURO CARNEIRO DE LOYOLA
Region Brazil
Timezone Unknown (UTC+0.0)
Stats Elevation 15 ft / 5 m (AMSL)
Location -26.224452° -48.797362°
Runways 1
Magnetic Variation 19.627° W

METAR

Not found

TAF

TAF SBJV 120300Z 1206/1218 11006KT 9999 BKN025 TN20/1209Z TX25/1217Z PROB30 TEMPO 1206/1209 19002KT BECMG 1215/1218 06008KT SCT035 RMK PDN

Decode

Destination Runways

ID Width Length Bearing (true) Bearing (mag) Surface Threshold Offset Overrun Length
15 148 ft / 45 m 5,382 ft / 1,640 m 128.89° 148.52° Asphalt 0 ft / 0 m 200 ft / 61 m
33 148 ft / 45 m 5,382 ft / 1,640 m 308.88° 328.51° Asphalt 0 ft / 0 m 200 ft / 61 m

Popular Alternatives